SBOSBO PLS / MBPV
Speedbird OnlineSpeedbird Online PLS / MBPV

Providenciales Airport
07:26 25°C

Location Providenciales, Turks and Caicos Islands
Latitude: 21.77359962463379
Longitude: -72.26589965820312
Local Time 07:26 on 12 Apr 2024
UTC -4 hours (America/Grand_Turk)
Currency £1 equals USD 1.26
METAR MBPV 121100Z 12006KT 9999 SCT012 25/21 Q1018
TAF MBPV 120530Z 1206/1306 11008KT 9999 FEW020 SCT040
Weather As Of 12 Apr 2024 07:26
Description Scattered clouds
Wind 11 km/h from South-East (120°)
Cloud Cover 40%
Precipitation Rain: none, Snow: none
Sunrise 06:31
Sunset 19:07
NOTAM 7 active NOTAM
Rotations During the last 90 days there were
20 flights from NAS
22 flights to NAS
Web Wikipedia
Codes IATA: PLS
ICAO: MBPV
Altitude 5 Meter / 15 Feet
Distance 6,925 KM / 4,303 Miles
from London.
Runways
RunwayLength (m)Surface
102804Asphalt
282804Asphalt
Radio
TypeDescriptionFrequency
APPPROVO APP126
GNDGND121.9
TWRTWR119.9
Live ATC



Support Speedbird Online

© 2017-2024 Speedbird Online